createdAt,value
2023-09-07T00:00:41.526Z,18.68
2023-09-07T00:03:09.269Z,18.60
2023-09-07T00:05:36.613Z,18.51
2023-09-07T00:08:04.238Z,18.48
2023-09-07T00:10:31.622Z,18.39
2023-09-07T00:12:59.056Z,18.39
2023-09-07T00:15:27.509Z,18.32
2023-09-07T00:17:55.528Z,18.16
2023-09-07T00:20:23.531Z,18.07
2023-09-07T00:22:51.360Z,17.93
2023-09-07T00:25:18.527Z,17.87
2023-09-07T00:27:46.012Z,17.89
2023-09-07T00:30:13.566Z,17.74
2023-09-07T00:32:41.501Z,17.77
2023-09-07T00:35:09.834Z,17.68
2023-09-07T00:37:37.115Z,17.63
2023-09-07T00:40:05.108Z,17.51
2023-09-07T00:42:32.688Z,17.50
2023-09-07T00:45:00.310Z,17.49
2023-09-07T00:47:27.886Z,17.46
2023-09-07T00:49:55.912Z,17.51
2023-09-07T00:52:23.374Z,17.39
2023-09-07T00:54:50.958Z,17.38
2023-09-07T00:57:20.526Z,17.33
2023-09-07T00:59:48.084Z,17.21
2023-09-07T01:02:15.867Z,17.16
2023-09-07T01:04:44.063Z,17.15
2023-09-07T01:07:18.838Z,17.06
2023-09-07T01:09:50.556Z,17.02
2023-09-07T01:12:18.389Z,17.01
2023-09-07T01:14:46.309Z,17.04
2023-09-07T01:17:15.014Z,17.01
2023-09-07T01:19:42.780Z,17.01
2023-09-07T01:22:11.116Z,17.02
2023-09-07T01:24:40.783Z,16.92
2023-09-07T01:27:08.852Z,16.86
2023-09-07T01:29:38.745Z,16.77
2023-09-07T01:32:06.562Z,16.75
2023-09-07T01:34:34.133Z,16.70
2023-09-07T01:37:01.403Z,16.75
2023-09-07T01:39:28.721Z,16.78
2023-09-07T01:41:56.089Z,16.84
2023-09-07T01:44:23.496Z,16.75
2023-09-07T01:46:51.414Z,16.73
2023-09-07T01:49:18.461Z,16.71
2023-09-07T01:51:45.900Z,16.68
2023-09-07T01:54:15.427Z,16.72
2023-09-07T01:56:42.856Z,16.68
2023-09-07T01:59:10.598Z,16.69
2023-09-07T02:01:38.887Z,16.75
2023-09-07T02:04:06.646Z,16.80
2023-09-07T02:06:34.741Z,16.75
2023-09-07T02:09:06.369Z,16.75
2023-09-07T02:11:33.846Z,16.83
2023-09-07T02:14:01.967Z,16.91
2023-09-07T02:16:29.333Z,16.80
2023-09-07T02:19:05.148Z,16.86
2023-09-07T02:21:32.748Z,16.83
2023-09-07T02:24:00.341Z,16.74
2023-09-07T02:26:29.594Z,16.73
2023-09-07T02:28:57.606Z,16.65
2023-09-07T02:31:25.303Z,16.52
2023-09-07T02:33:52.714Z,16.55
2023-09-07T02:36:20.114Z,16.42
2023-09-07T02:38:47.529Z,16.43
2023-09-07T02:41:19.047Z,16.39
2023-09-07T02:43:46.456Z,16.38
2023-09-07T02:46:13.864Z,16.21
2023-09-07T02:48:41.193Z,16.21
2023-09-07T02:51:08.441Z,16.19
2023-09-07T02:53:36.098Z,16.12
2023-09-07T02:56:05.644Z,16.21
2023-09-07T02:58:34.658Z,16.12
2023-09-07T03:01:07.759Z,16.13
2023-09-07T03:03:35.507Z,16.15
2023-09-07T03:06:14.053Z,16.11
2023-09-07T03:08:42.134Z,15.89
2023-09-07T03:11:10.120Z,15.87
2023-09-07T03:13:37.582Z,15.94
2023-09-07T03:16:05.875Z,15.92
2023-09-07T03:18:33.852Z,15.96
2023-09-07T03:21:04.607Z,15.86
2023-09-07T03:23:33.742Z,15.72
2023-09-07T03:26:01.784Z,15.63
2023-09-07T03:28:29.374Z,15.66
2023-09-07T03:30:57.037Z,15.72
2023-09-07T03:33:24.314Z,15.74
2023-09-07T03:35:53.159Z,15.59
2023-09-07T03:38:20.311Z,15.71
2023-09-07T03:40:48.582Z,15.67
2023-09-07T03:43:15.996Z,15.66
2023-09-07T03:45:43.104Z,15.57
2023-09-07T03:48:10.734Z,15.55
2023-09-07T03:50:39.245Z,15.61
2023-09-07T03:53:06.413Z,15.57
2023-09-07T03:55:45.208Z,15.56
2023-09-07T03:58:12.842Z,15.46
2023-09-07T04:00:43.616Z,15.37
2023-09-07T04:03:14.048Z,15.32
2023-09-07T04:05:41.446Z,15.31
2023-09-07T04:08:08.801Z,15.33
2023-09-07T04:10:39.357Z,15.29
2023-09-07T04:13:07.442Z,15.28
2023-09-07T04:15:45.447Z,15.29
2023-09-07T04:18:19.375Z,15.26
2023-09-07T04:20:46.744Z,15.23
2023-09-07T04:23:14.815Z,15.27
2023-09-07T04:25:41.976Z,15.22
2023-09-07T04:28:09.813Z,15.14
2023-09-07T04:30:41.766Z,15.11
2023-09-07T04:33:09.454Z,15.12
2023-09-07T04:35:36.727Z,15.24
2023-09-07T04:38:03.810Z,15.17
2023-09-07T04:40:31.109Z,15.10
2023-09-07T04:42:58.204Z,15.10
2023-09-07T04:45:25.783Z,15.17
2023-09-07T04:47:53.016Z,15.19
2023-09-07T04:50:20.393Z,15.18
2023-09-07T04:52:47.707Z,15.27
2023-09-07T04:55:15.197Z,15.23
2023-09-07T04:57:42.227Z,15.18
2023-09-07T05:00:10.727Z,15.18
2023-09-07T05:02:41.732Z,15.26
2023-09-07T05:05:13.019Z,15.42
2023-09-07T05:07:40.037Z,15.57
2023-09-07T05:10:09.708Z,15.64
2023-09-07T05:12:36.912Z,15.70
2023-09-07T05:15:07.352Z,15.75
2023-09-07T05:17:34.934Z,15.81
2023-09-07T05:20:01.922Z,15.77
2023-09-07T05:22:29.000Z,15.82
2023-09-07T05:24:57.053Z,15.93
2023-09-07T05:27:24.056Z,15.98
2023-09-07T05:29:51.066Z,16.04
2023-09-07T05:32:17.903Z,16.10
2023-09-07T05:34:44.751Z,16.22
2023-09-07T05:37:11.688Z,16.34
2023-09-07T05:39:38.773Z,16.51
2023-09-07T05:42:05.965Z,16.58
2023-09-07T05:44:33.215Z,16.70
2023-09-07T05:47:03.644Z,16.87
2023-09-07T05:49:30.933Z,17.05
2023-09-07T05:51:57.946Z,17.15
2023-09-07T05:54:24.927Z,17.45
2023-09-07T05:56:51.931Z,17.58
2023-09-07T05:59:19.762Z,17.82
2023-09-07T06:01:46.782Z,17.82
2023-09-07T06:04:14.416Z,18.02
2023-09-07T06:06:41.589Z,18.07
2023-09-07T06:09:08.562Z,18.27
2023-09-07T06:11:36.047Z,18.75
2023-09-07T06:14:04.120Z,20.21
2023-09-07T06:16:31.232Z,21.23
2023-09-07T06:18:58.625Z,22.34
2023-09-07T06:21:25.704Z,22.61
2023-09-07T06:23:52.590Z,23.19
2023-09-07T06:26:20.530Z,23.72
2023-09-07T06:28:47.892Z,23.98
2023-09-07T06:31:18.926Z,24.32
2023-09-07T06:33:46.640Z,24.65
2023-09-07T06:36:13.792Z,24.56
2023-09-07T06:38:40.769Z,24.36
2023-09-07T06:41:08.903Z,24.31
2023-09-07T06:43:36.274Z,23.89
2023-09-07T06:46:06.752Z,23.62
2023-09-07T06:48:33.699Z,24.12
2023-09-07T06:51:07.705Z,24.13
2023-09-07T06:53:55.380Z,23.11
2023-09-07T06:56:21.905Z,22.45
2023-09-07T06:58:48.751Z,22.29
2023-09-07T07:01:15.905Z,21.95
2023-09-07T07:03:43.348Z,21.96
2023-09-07T07:06:10.300Z,21.69
2023-09-07T07:08:37.135Z,21.49
2023-09-07T07:11:03.984Z,21.49
2023-09-07T07:13:31.044Z,21.62
2023-09-07T07:15:57.971Z,21.78
2023-09-07T07:18:25.027Z,21.78
2023-09-07T07:20:52.094Z,21.83
2023-09-07T07:23:19.037Z,21.95
2023-09-07T07:25:46.119Z,22.09
2023-09-07T07:28:12.969Z,22.20
2023-09-07T07:30:43.747Z,22.32
2023-09-07T07:33:13.135Z,22.39
2023-09-07T07:35:40.168Z,22.42
2023-09-07T07:38:09.816Z,22.49
2023-09-07T07:40:37.119Z,22.66
2023-09-07T07:43:04.436Z,22.97
2023-09-07T07:45:31.523Z,23.13
2023-09-07T07:47:58.336Z,23.02
2023-09-07T07:50:25.280Z,23.24
2023-09-07T07:52:52.164Z,23.13
2023-09-07T07:55:19.225Z,23.29
2023-09-07T07:57:46.115Z,23.49
2023-09-07T08:00:13.593Z,23.65
2023-09-07T08:02:40.766Z,23.57
2023-09-07T08:05:08.204Z,23.64
2023-09-07T08:07:35.430Z,23.82
2023-09-07T08:10:02.356Z,23.54
2023-09-07T08:12:29.516Z,23.83
2023-09-07T08:14:58.358Z,23.79
2023-09-07T08:17:27.251Z,24.03
2023-09-07T08:19:57.881Z,24.15
2023-09-07T08:22:25.648Z,24.25
2023-09-07T08:24:53.819Z,24.33
2023-09-07T08:27:23.710Z,24.68
2023-09-07T08:29:53.036Z,24.69
2023-09-07T08:32:21.395Z,24.71
2023-09-07T08:34:49.500Z,25.08
2023-09-07T08:37:17.414Z,25.10
2023-09-07T08:39:45.594Z,25.36
2023-09-07T08:42:15.032Z,25.47
2023-09-07T08:44:44.607Z,25.43
2023-09-07T08:47:13.261Z,25.68
2023-09-07T08:49:42.916Z,25.60
2023-09-07T08:52:11.823Z,25.61
2023-09-07T08:54:40.431Z,25.61
2023-09-07T08:57:08.712Z,25.99
2023-09-07T09:02:12.771Z,26.18
2023-09-07T09:04:40.670Z,26.29
2023-09-07T09:07:10.613Z,26.49
2023-09-07T09:09:39.765Z,26.28
2023-09-07T09:12:11.946Z,26.57
2023-09-07T09:14:44.739Z,27.00
2023-09-07T09:17:16.692Z,26.96
2023-09-07T09:19:45.040Z,26.88
2023-09-07T09:22:15.195Z,26.87
2023-09-07T09:24:42.976Z,26.99
2023-09-07T09:27:10.892Z,27.09
2023-09-07T09:29:39.297Z,27.10
2023-09-07T09:32:08.256Z,27.11
2023-09-07T09:34:37.609Z,27.44
2023-09-07T09:37:05.974Z,27.80
2023-09-07T09:39:33.574Z,27.91
2023-09-07T09:42:01.501Z,28.06
2023-09-07T09:44:30.746Z,28.21
2023-09-07T09:47:00.914Z,28.07
2023-09-07T09:49:31.306Z,27.52
2023-09-07T09:52:00.010Z,27.87
2023-09-07T09:54:29.335Z,28.14
2023-09-07T09:56:56.762Z,27.46
2023-09-07T09:59:24.304Z,28.01
2023-09-07T10:01:54.394Z,28.00
2023-09-07T10:04:24.392Z,27.91
2023-09-07T10:07:06.578Z,27.55
2023-09-07T10:09:38.044Z,27.87
2023-09-07T10:12:09.611Z,28.21
2023-09-07T10:14:42.071Z,28.47
2023-09-07T10:17:11.660Z,28.71
2023-09-07T10:19:41.915Z,28.41
2023-09-07T10:22:14.974Z,28.35
2023-09-07T10:27:54.705Z,28.66
2023-09-07T10:30:27.062Z,28.91
2023-09-07T10:32:55.405Z,28.96
2023-09-07T10:35:23.473Z,28.90
2023-09-07T10:37:51.820Z,28.71
2023-09-07T10:40:24.404Z,28.98
2023-09-07T10:43:04.875Z,28.87
2023-09-07T10:45:33.351Z,28.61
2023-09-07T10:48:01.680Z,29.16
2023-09-07T10:50:29.578Z,28.74
2023-09-07T10:53:04.948Z,28.82
2023-09-07T10:55:41.637Z,28.75
2023-09-07T10:58:12.537Z,29.03
2023-09-07T11:00:45.030Z,28.84
2023-09-07T11:03:16.705Z,28.57
2023-09-07T11:05:44.884Z,28.78
2023-09-07T11:08:12.806Z,28.81
2023-09-07T11:10:41.305Z,28.68
2023-09-07T11:13:10.209Z,28.87
2023-09-07T11:15:40.761Z,28.98
2023-09-07T11:18:11.952Z,29.17
2023-09-07T11:20:42.498Z,29.12
2023-09-07T11:23:09.787Z,29.17
2023-09-07T11:25:38.814Z,29.02
2023-09-07T11:28:15.389Z,28.60
2023-09-07T11:30:57.056Z,28.75
2023-09-07T11:33:24.836Z,28.44
2023-09-07T11:35:56.530Z,28.73
2023-09-07T11:38:23.844Z,28.36
2023-09-07T11:40:51.323Z,28.31
2023-09-07T11:43:22.216Z,28.43
2023-09-07T11:45:51.589Z,28.41
2023-09-07T11:48:19.227Z,28.45
2023-09-07T11:50:46.343Z,28.40
2023-09-07T11:53:15.177Z,28.47
2023-09-07T11:55:44.793Z,28.65
2023-09-07T11:58:11.833Z,28.51
2023-09-07T12:00:43.066Z,28.53
2023-09-07T12:03:11.118Z,28.39
2023-09-07T12:05:38.606Z,28.75
2023-09-07T12:08:07.427Z,28.38
2023-09-07T12:10:34.960Z,28.57
2023-09-07T12:13:01.999Z,28.63
2023-09-07T12:15:30.663Z,28.71
2023-09-07T12:17:58.930Z,28.47
2023-09-07T12:20:27.107Z,28.49
2023-09-07T12:22:54.174Z,28.82
2023-09-07T12:25:21.629Z,28.96
2023-09-07T12:27:54.397Z,28.97
2023-09-07T12:30:24.172Z,29.01
2023-09-07T12:32:52.695Z,28.99
2023-09-07T12:35:21.993Z,28.82
2023-09-07T12:37:49.492Z,28.91
2023-09-07T12:40:18.222Z,29.17
2023-09-07T12:42:47.198Z,28.99
2023-09-07T12:45:18.365Z,28.75
2023-09-07T12:47:51.202Z,29.00
2023-09-07T12:50:19.051Z,28.76
2023-09-07T12:52:46.585Z,28.73
2023-09-07T12:55:14.059Z,28.69
2023-09-07T12:57:42.067Z,28.67
2023-09-07T13:00:09.668Z,28.56
2023-09-07T13:02:36.999Z,28.45
2023-09-07T13:05:07.668Z,28.58
2023-09-07T13:07:36.812Z,28.41
2023-09-07T13:10:05.729Z,28.46
2023-09-07T13:12:36.317Z,28.63
2023-09-07T13:15:03.897Z,28.70
2023-09-07T13:17:31.416Z,28.40
2023-09-07T13:19:58.755Z,28.65
2023-09-07T13:22:26.422Z,28.85
2023-09-07T13:24:53.796Z,28.87
2023-09-07T13:27:23.300Z,28.75
2023-09-07T13:29:53.460Z,28.67
2023-09-07T13:32:25.118Z,29.14
2023-09-07T13:34:52.225Z,28.79
2023-09-07T13:37:23.930Z,28.87
2023-09-07T13:39:50.830Z,28.76
2023-09-07T13:42:19.218Z,28.47
2023-09-07T13:44:49.008Z,28.45
2023-09-07T13:47:17.358Z,28.51
2023-09-07T13:49:47.801Z,28.58
2023-09-07T13:52:15.020Z,28.67
2023-09-07T13:54:42.578Z,28.49
2023-09-07T13:57:10.177Z,28.60
2023-09-07T13:59:37.977Z,28.66
2023-09-07T14:02:06.423Z,28.50
2023-09-07T14:04:35.975Z,28.23
2023-09-07T14:07:03.215Z,28.36
2023-09-07T14:09:30.717Z,28.45
2023-09-07T14:11:58.259Z,28.38
2023-09-07T14:14:26.969Z,28.38
2023-09-07T14:16:58.004Z,28.51
2023-09-07T14:19:27.898Z,28.46
2023-09-07T14:21:58.101Z,28.26
2023-09-07T14:24:25.893Z,28.31
2023-09-07T14:26:59.336Z,28.21
2023-09-07T14:29:28.642Z,28.20
2023-09-07T14:31:56.964Z,28.12
2023-09-07T14:34:25.054Z,28.21
2023-09-07T14:36:52.476Z,28.23
2023-09-07T14:39:24.903Z,28.34
2023-09-07T14:41:55.774Z,28.29
2023-09-07T14:44:25.885Z,28.32
2023-09-07T14:46:52.833Z,28.15
2023-09-07T14:49:19.739Z,28.01
2023-09-07T14:51:47.087Z,27.97
2023-09-07T14:54:14.013Z,27.95
2023-09-07T14:56:41.261Z,28.02
2023-09-07T14:59:08.536Z,27.91
2023-09-07T15:01:36.278Z,27.97
2023-09-07T15:04:03.202Z,27.88
2023-09-07T15:06:32.073Z,27.69
2023-09-07T15:09:00.245Z,27.64
2023-09-07T15:11:27.075Z,27.78
2023-09-07T15:13:56.382Z,27.59
2023-09-07T15:16:24.514Z,27.50
2023-09-07T15:18:54.851Z,27.54
2023-09-07T15:21:22.125Z,27.53
2023-09-07T15:23:49.845Z,27.52
2023-09-07T15:26:16.854Z,27.42
2023-09-07T15:28:43.898Z,27.27
2023-09-07T15:31:10.697Z,27.02
2023-09-07T15:33:38.529Z,27.03
2023-09-07T15:36:05.540Z,27.08
2023-09-07T15:38:33.494Z,26.89
2023-09-07T15:41:05.617Z,26.91
2023-09-07T15:43:33.757Z,26.91
2023-09-07T15:46:00.995Z,26.68
2023-09-07T15:48:28.768Z,26.85
2023-09-07T15:50:56.407Z,26.77
2023-09-07T15:53:23.431Z,26.69
2023-09-07T15:55:50.233Z,26.63
2023-09-07T15:58:17.003Z,26.70
2023-09-07T16:00:43.991Z,26.69
2023-09-07T16:03:11.065Z,26.67
2023-09-07T16:05:38.079Z,26.54
2023-09-07T16:08:05.395Z,26.44
2023-09-07T16:10:33.402Z,26.39
2023-09-07T16:13:00.380Z,26.42
2023-09-07T16:15:29.131Z,26.03
2023-09-07T16:17:58.022Z,26.06
2023-09-07T16:20:25.031Z,25.92
2023-09-07T16:22:51.933Z,25.93
2023-09-07T16:25:19.096Z,25.88
2023-09-07T16:27:48.012Z,25.72
2023-09-07T16:30:15.353Z,25.67
2023-09-07T16:32:45.301Z,25.72
2023-09-07T16:35:12.379Z,25.53
2023-09-07T16:37:40.220Z,25.27
2023-09-07T16:40:07.987Z,25.36
2023-09-07T16:42:34.858Z,25.34
2023-09-07T16:45:01.927Z,25.16
2023-09-07T16:47:28.628Z,25.14
2023-09-07T16:49:55.588Z,25.10
2023-09-07T16:52:22.476Z,25.09
2023-09-07T16:54:49.547Z,24.82
2023-09-07T16:57:16.374Z,24.86
2023-09-07T17:02:13.143Z,24.64
2023-09-07T17:04:40.254Z,24.50
2023-09-07T17:07:08.666Z,24.40
2023-09-07T17:09:37.013Z,24.42
2023-09-07T17:12:06.776Z,24.36
2023-09-07T17:14:34.698Z,24.29
2023-09-07T17:17:01.692Z,24.22
2023-09-07T17:19:32.762Z,24.20
2023-09-07T17:21:59.774Z,23.86
2023-09-07T17:24:27.146Z,23.92
2023-09-07T17:26:55.438Z,23.83
2023-09-07T17:29:22.429Z,23.76
2023-09-07T17:31:49.412Z,23.70
2023-09-07T17:34:16.284Z,23.76
2023-09-07T17:36:43.117Z,23.63
2023-09-07T17:39:09.970Z,23.59
2023-09-07T17:41:38.371Z,23.51
2023-09-07T17:44:06.721Z,23.34
2023-09-07T17:46:34.090Z,23.36
2023-09-07T17:49:01.021Z,23.21
2023-09-07T17:51:28.105Z,23.25
2023-09-07T17:53:55.311Z,23.13
2023-09-07T17:56:22.732Z,23.04
2023-09-07T17:58:51.624Z,22.91
2023-09-07T18:01:23.012Z,23.04
2023-09-07T18:03:50.566Z,22.79
2023-09-07T18:06:18.827Z,22.70
2023-09-07T18:08:46.666Z,22.67
2023-09-07T18:11:14.343Z,22.65
2023-09-07T18:13:44.367Z,22.65
2023-09-07T18:19:22.811Z,22.51
2023-09-07T18:21:55.228Z,22.44
2023-09-07T18:24:27.679Z,22.41
2023-09-07T18:26:56.768Z,22.42
2023-09-07T18:29:27.797Z,22.40
2023-09-07T18:32:00.834Z,22.39
2023-09-07T18:34:30.751Z,22.35
2023-09-07T18:36:59.706Z,22.15
2023-09-07T18:39:29.798Z,22.14
2023-09-07T18:42:06.366Z,22.18
2023-09-07T18:44:36.968Z,22.27
2023-09-07T18:47:05.007Z,22.16
2023-09-07T18:49:32.890Z,22.23
2023-09-07T18:52:04.693Z,22.05
2023-09-07T18:54:33.732Z,22.02
2023-09-07T18:57:02.593Z,22.06
2023-09-07T18:59:30.235Z,21.95
2023-09-07T19:01:58.131Z,21.90
2023-09-07T19:04:30.116Z,21.81
2023-09-07T19:06:59.746Z,21.72
2023-09-07T19:09:30.630Z,21.83
2023-09-07T19:12:01.324Z,21.80
2023-09-07T19:14:34.118Z,21.69
2023-09-07T19:17:10.670Z,21.64
2023-09-07T19:19:39.331Z,21.60
2023-09-07T19:22:07.182Z,21.60
2023-09-07T19:24:37.138Z,21.50
2023-09-07T19:27:06.639Z,21.52
2023-09-07T19:29:36.063Z,21.58
2023-09-07T19:32:04.758Z,21.41
2023-09-07T19:34:32.649Z,21.40
2023-09-07T19:37:02.214Z,21.43
2023-09-07T19:39:30.866Z,21.26
2023-09-07T19:42:01.634Z,21.26
2023-09-07T19:44:30.149Z,21.21
2023-09-07T19:47:01.265Z,21.25
2023-09-07T19:49:30.562Z,21.19
2023-09-07T19:51:58.947Z,21.13
2023-09-07T19:54:31.482Z,21.11
2023-09-07T19:57:01.466Z,20.99
2023-09-07T19:59:30.331Z,21.07
2023-09-07T20:02:05.479Z,21.03
2023-09-07T20:04:36.926Z,20.90
2023-09-07T20:07:05.819Z,21.07
2023-09-07T20:09:33.908Z,20.93
2023-09-07T20:12:07.052Z,20.79
2023-09-07T20:14:36.364Z,20.96
2023-09-07T20:17:07.435Z,20.86
2023-09-07T20:19:46.096Z,20.85
2023-09-07T20:22:19.038Z,20.91
2023-09-07T20:24:46.514Z,20.84
2023-09-07T20:27:15.350Z,20.77
2023-09-07T20:29:44.367Z,20.69
2023-09-07T20:32:13.545Z,20.66
2023-09-07T20:34:44.739Z,20.60
2023-09-07T20:37:13.347Z,20.53
2023-09-07T20:39:42.401Z,20.56
2023-09-07T20:42:11.416Z,20.61
2023-09-07T20:44:42.047Z,20.69
2023-09-07T20:47:11.808Z,20.63
2023-09-07T20:49:42.510Z,20.56
2023-09-07T20:52:10.638Z,20.58
2023-09-07T20:54:39.529Z,20.50
2023-09-07T20:57:10.525Z,20.50
2023-09-07T20:59:39.649Z,20.42
2023-09-07T21:02:12.921Z,20.34
2023-09-07T21:04:52.406Z,20.44
2023-09-07T21:07:22.115Z,20.37
2023-09-07T21:09:52.907Z,20.28
2023-09-07T21:12:24.210Z,20.25
2023-09-07T21:14:57.848Z,20.21
2023-09-07T21:17:28.076Z,20.16
2023-09-07T21:20:02.782Z,20.13
2023-09-07T21:22:32.379Z,20.20
2023-09-07T21:25:02.487Z,20.24
2023-09-07T21:27:32.509Z,20.21
2023-09-07T21:30:02.229Z,20.03
2023-09-07T21:32:31.162Z,20.01
2023-09-07T21:35:01.564Z,19.95
2023-09-07T21:37:31.833Z,20.04
2023-09-07T21:40:05.171Z,19.95
2023-09-07T21:42:33.379Z,19.92
2023-09-07T21:45:02.933Z,19.97
2023-09-07T21:47:32.432Z,19.88
2023-09-07T21:50:01.717Z,19.88
2023-09-07T21:52:32.158Z,19.78
2023-09-07T21:55:02.184Z,19.78
2023-09-07T21:57:32.064Z,19.82
2023-09-07T22:00:14.588Z,19.67
2023-09-07T22:02:42.589Z,19.63
2023-09-07T22:25:33.379Z,19.46
2023-09-07T22:28:02.899Z,19.64
2023-09-07T22:33:09.989Z,19.57
2023-09-07T22:35:52.185Z,19.53
2023-09-07T22:38:23.338Z,19.52
2023-09-07T22:41:00.426Z,19.48
2023-09-07T22:43:29.645Z,19.45
2023-09-07T22:51:42.168Z,19.40
2023-09-07T23:18:03.281Z,19.07
2023-09-07T23:34:27.756Z,18.79
2023-09-07T23:52:39.365Z,18.74
2023-09-07T23:55:11.991Z,18.82
2023-09-07T23:57:46.817Z,18.65
